• Join FlightAware (Why Join?)
  • Login
  • US Flag 
02:22AM EST


 

Airport Tracker/Info


-or-


 

Live Flight TrackerFlight Track Log ✈ N670MW ✈ 07-Nov-2013 ✈ KHIO - KRRT

Flight Track Log - Related Links

Times and Time Zones

All times are in EST time to prevent confusion due to time zone crossing. See the N670MW flight status page for this flight to view local times or setup timezone preferences in your user account.

Time Position Orientation Groundspeed Altitude Reporting Facility
EST Latitude Longitude Course Direction KTS MPH feet Rate Location/Type
08:27PM 45.4578 -122.8258 133° Southeast 278 320 4,000  Level Seattle Center
08:27PM 45.4603 -122.8294 315° West 224 258 4,000  Level Seattle Center
08:28PM 45.4117 -122.7450 129° Southeast 263 303 4,000 1,200 Level Seattle Center
08:29PM 45.8174 -121.8576 68° East  Level Estimated
08:29PM 45.4389 -122.6550 67° East 298 343 6,200  Level Seattle Center
08:29PM 45.4433 -122.6433 61° Northeast 294 338 6,500 3,240 Climbing Seattle Center
08:30PM 45.8560 -121.7006 71° East  Level Estimated
08:30PM 45.4931 -122.5489 53° Northeast 298 343 10,200  Level Seattle Center
08:31PM 45.5233 -122.4308 70° East 318 366 12,700 2,340 Climbing Seattle Center
08:32PM 45.5644 -122.2722 70° East 355 409 15,000 2,160 Climbing Seattle Center
08:33PM 45.6011 -122.1322 69° East 373 429 17,100 2,040 Climbing Seattle Center
08:34PM 45.6364 -121.9889 71° East 382 440 19,200 2,160 Climbing Seattle Center
08:35PM 45.6761 -121.8378 69° East 389 448 21,500 2,160 Climbing Seattle Center
08:36PM 45.7128 -121.6889 71° East 394 453 23,600 2,100 Climbing Seattle Center
08:37PM 45.7503 -121.5397 70° East 399 459 25,800 2,040 Climbing Seattle Center
08:38PM 45.7881 -121.3850 71° East 409 471 27,800 1,860 Climbing Seattle Center
08:39PM 45.8264 -121.2292 71° East 415 478 29,600 1,980 Climbing Seattle Center
08:40PM 45.8653 -121.0764 70° East 409 471 31,900 1,800 Climbing Seattle Center
08:41PM 45.9025 -120.9194 71° East 414 476 33,300 1,620 Climbing Seattle Center
08:42PM 45.9403 -120.7664 70° East 408 470 35,300 1,800 Climbing Seattle Center
08:43PM 45.9758 -120.6169 71° East 398 458 37,000 1,320 Climbing Seattle Center
08:44PM 46.0114 -120.4669 71° East 397 457 38,000 960 Climbing Seattle Center
08:45PM 46.0489 -120.3139 71° East 405 466 39,000 1,020 Climbing Seattle Center
08:46PM 46.0853 -120.1589 71° East 409 471 40,100 960 Climbing Seattle Center
08:47PM 46.1208 -120.0039 72° East 407 468 41,000 420 Climbing Seattle Center
08:48PM 46.1569 -119.8447 72° East 416 479 41,000  Level Seattle Center
08:49PM 46.2053 -119.6431 71° East 441 507 41,000  Level Seattle Center
08:50PM 46.2442 -119.4664 72° East 460 529 41,000  Level Seattle Center
08:51PM 46.2844 -119.2889 72° East 465 535 41,000  Level Seattle Center
08:52PM 46.3250 -119.1136 71° East 467 537 41,000  Level Seattle Center
08:53PM 46.3656 -118.9347 72° East 469 540 41,000  Level Seattle Center
08:54PM 46.4022 -118.7700 72° East 460 529 41,000  Level Seattle Center
08:55PM 46.4414 -118.5978 72° East 456 525 41,000  Level Seattle Center
08:56PM 46.4783 -118.4219 73° East 458 527 41,000  Level Seattle Center
08:57PM 46.5169 -118.2492 72° East 456 525 41,000  Level Seattle Center
08:58PM 46.5544 -118.0722 73° East 461 531 41,000  Level Seattle Center
08:59PM 46.5992 -117.8633 73° East 457 526 41,000  Level Seattle Center
09:00PM 46.6353 -117.6872 73° East 457 526 41,000  Level Seattle Center
09:01PM 46.6719 -117.5108 73° East 459 528 41,000  Level Seattle Center
09:02PM 46.7092 -117.3358 73° East 457 526 41,000  Level Seattle Center
09:03PM 46.7453 -117.1539 74° East 467 537 41,000  Level Seattle Center
09:04PM 46.7808 -116.9764 74° East 462 532 41,000  Level Seattle Center
09:05PM 46.8172 -116.7961 74° East 467 537 41,000  Level Seattle Center
09:06PM 46.8531 -116.6197 73° East 460 529 41,000  Level Seattle Center
09:07PM 46.8872 -116.4422 74° East 458 527 41,000  Level Seattle Center
09:08PM 46.9222 -116.2633 74° East 459 528 41,000  Level Seattle Center
09:09PM 46.9569 -116.0861 74° East 457 526 41,000  Level Seattle Center
09:10PM 46.9969 -115.8764 74° East 452 520 41,000  Level Seattle Center
09:11PM 47.0297 -115.7000 75° East 452 520 41,000  Level Seattle Center
09:12PM 47.0489 -115.6064 73° East 450 518 41,000  Level Salt Lake Center
09:13PM 47.0831 -115.4264 74° East 456 525 41,000  Level Salt Lake Center
09:14PM 47.1164 -115.2464 75° East 459 528 41,000  Level Salt Lake Center
09:15PM 47.1475 -115.0700 75° East 451 519 41,000  Level Salt Lake Center
09:16PM 47.1792 -114.8933 75° East 450 518 41,000  Level Salt Lake Center
09:17PM 47.2181 -114.6794 75° East 453 521 41,000  Level Salt Lake Center
09:18PM 47.2497 -114.5008 75° East 455 524 41,000  Level Salt Lake Center
09:19PM 47.2806 -114.3228 76° East 455 524 41,000  Level Salt Lake Center
09:20PM 47.3122 -114.1447 75° East 454 522 41,000  Level Salt Lake Center
09:21PM 47.3431 -113.9656 76° East 455 524 41,000  Level Salt Lake Center
09:22PM 47.3736 -113.7872 76° East 453 521 41,000  Level Salt Lake Center
09:23PM 47.4100 -113.5708 76° East 455 524 41,000  Level Salt Lake Center
09:24PM 47.4406 -113.3894 76° East 460 529 41,000  Level Salt Lake Center
09:25PM 47.4700 -113.2075 76° East 458 527 41,000  Level Salt Lake Center
09:26PM 47.5017 -113.0247 76° East 463 533 41,000  Level Salt Lake Center
09:27PM 47.5311 -112.8278 77° East 463 533 41,000  Level Salt Lake Center
09:28PM 47.5606 -112.6431 77° East 463 533 41,000  Level Salt Lake Center
09:29PM 47.5894 -112.4583 77° East 463 533 41,000  Level Salt Lake Center
09:30PM 47.6192 -112.2736 77° East 462 532 41,000  Level Salt Lake Center
09:32PM 47.6475 -112.0883 77° East 462 532 41,000  Level Salt Lake Center
09:33PM 47.6767 -111.9006 77° East 467 537 41,000  Level Salt Lake Center
09:34PM 47.7053 -111.7128 77° East 466 536 41,000  Level Salt Lake Center
09:35PM 47.7392 -111.4850 77° East 467 537 41,000  Level Salt Lake Center
09:36PM 47.7669 -111.2922 78° East 466 536 41,000  Level Salt Lake Center
09:37PM 47.7956 -111.0989 78° East 470 541 41,000  Level Salt Lake Center
09:38PM 47.8231 -110.9075 78° East 472 543 41,000  Level Salt Lake Center
09:39PM 47.8500 -110.7208 78° East 465 535 41,000  Level Salt Lake Center
09:40PM 47.8764 -110.5347 78° East 461 531 41,000  Level Salt Lake Center
09:41PM 47.9011 -110.3508 79° East 457 526 41,000  Level Salt Lake Center
09:42PM 47.9269 -110.1639 78° East 459 528 41,000  Level Salt Lake Center
09:43PM 47.9528 -109.9747 78° East 464 534 41,000  Level Salt Lake Center
09:44PM 47.9778 -109.7864 79° East 464 534 41,000  Level Salt Lake Center
09:45PM 48.0031 -109.5983 79° East 464 534 41,000  Level Salt Lake Center
09:46PM 48.0317 -109.3703 79° East 467 537 41,000  Level Salt Lake Center
09:47PM 48.0561 -109.1794 79° East 468 539 41,000  Level Salt Lake Center
09:48PM 48.0811 -108.9883 79° East 468 539 41,000  Level Salt Lake Center
09:49PM 48.1022 -108.7947 81° East 471 542 41,000  Level Salt Lake Center
09:50PM 48.1253 -108.6019 80° East 473 544 41,000  Level Salt Lake Center
09:51PM 48.1478 -108.4078 80° East 475 547 41,000  Level Salt Lake Center
09:52PM 48.1728 -108.2153 79° East 473 544 41,000  Level Salt Lake Center
09:53PM 48.1972 -107.9833 81° East 471 542 41,000  Level Salt Lake Center
09:54PM 48.2203 -107.7925 80° East 469 540 41,000  Level Salt Lake Center
09:55PM 48.2414 -107.6025 80° East 465 535 41,000  Level Salt Lake Center
09:56PM 48.2608 -107.4122 81° East 463 533 41,000  Level Salt Lake Center
09:57PM 48.2806 -107.2383 80° East 458 527 41,000  Level Salt Lake Center
09:58PM 48.3058 -107.0139 80° East 456 525 41,000  Level Salt Lake Center
09:59PM 48.3242 -106.8247 82° East 457 526 41,000  Level Salt Lake Center
10:00PM 48.3447 -106.6358 81° East 458 527 41,000  Level Salt Lake Center
10:01PM 48.3653 -106.4456 81° East 460 529 41,000  Level Salt Lake Center
10:02PM 48.3828 -106.2561 82° East 460 529 41,000  Level Salt Lake Center
10:03PM 48.4033 -106.0644 81° East 463 533 41,000  Level Salt Lake Center
10:04PM 48.4219 -105.8733 82° East 462 532 41,000  Level Salt Lake Center
10:05PM 48.4392 -105.6822 82° East 462 532 41,000  Level Salt Lake Center
10:06PM 48.4611 -105.4528 82° East 462 532 41,000  Level Salt Lake Center
10:07PM 48.4803 -105.2600 81° East 463 533 41,000  Level Salt Lake Center
10:08PM 48.4961 -105.0706 83° East 461 531 41,000  Level Salt Lake Center
10:09PM 48.5136 -104.8772 82° East 462 532 41,000  Level Salt Lake Center
10:11PM 48.5292 -104.6878 83° East 460 529 41,000  Level Salt Lake Center
10:12PM 48.5464 -104.4906 82° East 463 533 41,000  Level Salt Lake Center
10:13PM 48.5617 -104.3003 83° East 464 534 41,000  Level Salt Lake Center
10:14PM 48.5767 -104.1078 83° East 462 532 41,000  Level Salt Lake Center
10:15PM 48.5925 -103.9136 83° East 463 533 41,000  Level Salt Lake Center
10:16PM 48.6111 -103.6822 83° East 463 533 41,000  Level Salt Lake Center
10:17PM 48.6250 -103.4894 84° East 462 532 41,000  Level Salt Lake Center
10:18PM 48.6383 -103.3000 84° East 460 529 41,000  Level Minneapolis Center
10:19PM 48.6544 -103.1036 83° East 462 532 41,000  Level Salt Lake Center
10:20PM 48.6675 -102.9089 84° East 463 533 41,000  Level Salt Lake Center
10:21PM 48.6781 -102.7128 85° East 467 537 41,000  Level Minneapolis Center
10:22PM 48.6911 -102.5164 84° East 470 541 41,000  Level Minneapolis Center
10:23PM 48.7031 -102.3217 85° East 467 537 41,000  Level Minneapolis Center
10:24PM 48.7156 -102.1275 84° East 466 536 41,000  Level Minneapolis Center
10:25PM 48.7303 -101.8947 84° East 463 533 41,000  Level Minneapolis Center
10:26PM 48.7408 -101.6992 85° East 466 536 41,000  Level Minneapolis Center
10:27PM 48.7525 -101.5061 85° East 464 534 41,000  Level Minneapolis Center
10:28PM 48.7628 -101.3128 85° East 462 532 41,000  Level Minneapolis Center
10:29PM 48.7728 -101.1356 85° East 462 532 41,000  Level Minneapolis Center
10:30PM 48.7856 -100.9031 85° East 462 532 41,000  Level Minneapolis Center
10:31PM 48.7950 -100.7111 86° East 460 529 41,000  Level Minneapolis Center
10:32PM 48.8044 -100.5194 86° East 458 527 41,000  Level Minneapolis Center
10:33PM 48.8136 -100.3297 86° East 455 524 41,000  Level Minneapolis Center
10:34PM 48.8222 -100.1386 86° East 455 524 41,000  Level Minneapolis Center
10:35PM 48.8314 -99.9486 86° East 454 522 41,000  Level Minneapolis Center
10:36PM 48.8383 -99.7581 87° East 454 522 41,000  Level Minneapolis Center
10:37PM 48.8469 -99.5675 86° East 453 521 41,000  Level Minneapolis Center
10:38PM 48.8547 -99.3769 86° East 454 522 41,000  Level Minneapolis Center
10:39PM 48.8617 -99.1850 87° East 456 525 41,000  Level Minneapolis Center
10:40PM 48.8708 -98.9514 86° East 459 528 41,000  Level Minneapolis Center
10:41PM 48.8778 -98.7567 87° East 461 531 41,000  Level Minneapolis Center
10:42PM 48.8842 -98.5617 87° East 462 532 41,000  Level Minneapolis Center
10:43PM 48.8894 -98.3697 88° East 460 529 41,000 -60 Level Minneapolis Center
10:44PM 48.8953 -98.1769 87° East 459 528 40,900 -960 Descending Minneapolis Center
10:45PM 48.9006 -97.9861 88° East 457 526 39,100 -1,920 Descending Minneapolis Center
10:46PM 48.9053 -97.7967 88° East 452 520 37,100 -2,100 Descending Minneapolis Center
10:47PM 48.9094 -97.6033 88° East 454 522 34,800 -2,640 Descending Minneapolis Center
10:48PM 48.9144 -97.4028 88° East 468 539 31,700 -3,000 Descending Minneapolis Center
10:49PM 48.9192 -97.2075 88° East 466 536 28,700 -3,000 Descending Minneapolis Center
10:50PM 48.9219 -97.0167 89° East 457 526 25,600 -3,360 Descending Minneapolis Center
10:51PM 48.9267 -96.7758 88° East 469 540 21,900 -3,300 Descending Minneapolis Center
10:52PM 48.9294 -96.5894 89° East 454 522 18,900 -2,760 Descending Minneapolis Center
10:53PM 48.9303 -96.4142 90° East 428 493 16,400 -2,460 Descending Minneapolis Center
10:54PM 48.9339 -96.2547 88° East 395 455 13,900 -2,400 Descending Minneapolis Center
10:56PM 48.9425 -96.0947 85° East 384 442 11,500 -2,220 Descending Minneapolis Center
10:57PM 48.9558 -95.9511 82° East 370 426 9,400 -1,920 Descending Minneapolis Center
10:58PM 48.9683 -95.8383 80° East 319 367 7,700 -1,500 Descending Minneapolis Center
10:59PM 48.9828 -95.7200 79° East 290 334 6,400 -1,320 Descending Minneapolis Center
11:01PM 48.9333 -95.3769 90° East  Level FlightAware Approximate